Time;durP1;ratioP1;P1;durP2;ratioP2;P2;SDS_P1;SDS_P2;PMS_P1;PMS_P2;Temp;Humidity;BMP_temperature;BMP_pressure;BME280_temperature;BME280_humidity;BME280_pressure;Samples;Min_cycle;Max_cycle;Signal;HPM_P1;HPM_P2
2022/07/06 00:01:43;;;;;;;19.83;5.97;;;25.70;99.90;;;;;;4952696;28;20395;-48
2022/07/06 00:04:09;;;;;;;21.52;5.65;;;25.60;99.90;;;;;;4952978;29;20035;-47
2022/07/06 00:06:34;;;;;;;15.90;5.35;;;25.60;99.90;;;;;;4952904;29;20043;-47
2022/07/06 00:09:00;;;;;;;24.17;5.75;;;25.40;99.90;;;;;;4952666;29;20413;-47
2022/07/06 00:11:26;;;;;;;21.55;6.85;;;25.40;99.90;;;;;;4935546;29;20039;-47
2022/07/06 00:13:52;;;;;;;13.35;5.32;;;25.30;99.90;;;;;;4952908;29;20070;-47
2022/07/06 00:16:19;;;;;;;18.20;5.38;;;25.30;99.90;;;;;;4952935;29;20036;-47
2022/07/06 00:18:45;;;;;;;18.42;5.70;;;25.30;99.90;;;;;;4935509;29;20023;-47
2022/07/06 00:21:10;;;;;;;20.48;6.05;;;25.30;99.90;;;;;;4952651;29;20082;-47
2022/07/06 00:23:36;;;;;;;15.15;5.00;;;25.30;99.90;;;;;;4952478;29;20099;-48
2022/07/06 00:26:03;;;;;;;26.60;5.95;;;25.30;99.90;;;;;;4952441;29;20042;-47
2022/07/06 00:28:28;;;;;;;16.10;4.95;;;25.30;99.90;;;;;;4952799;29;20039;-47
2022/07/06 00:30:54;;;;;;;15.10;5.40;;;25.30;99.90;;;;;;4952584;29;20536;-48
2022/07/06 00:33:21;;;;;;;11.32;5.22;;;25.30;99.90;;;;;;4952846;29;20035;-48
2022/07/06 00:35:47;;;;;;;15.20;5.40;;;25.30;99.90;;;;;;4952648;29;20106;-48
2022/07/06 00:38:12;;;;;;;14.63;5.63;;;25.30;99.90;;;;;;4952502;29;20058;-47
2022/07/06 00:40:38;;;;;;;22.17;6.38;;;25.20;99.90;;;;;;4954357;28;20027;-47
2022/07/06 00:43:04;;;;;;;18.52;5.90;;;25.30;99.90;;;;;;4956079;29;20023;-47
2022/07/06 00:45:30;;;;;;;17.15;5.40;;;25.20;99.90;;;;;;4955877;29;20031;-47
2022/07/06 00:47:56;;;;;;;21.00;5.45;;;25.30;99.90;;;;;;4955548;29;20031;-47
2022/07/06 00:50:22;;;;;;;13.57;5.20;;;25.30;99.90;;;;;;4938928;29;20019;-47
2022/07/06 00:52:49;;;;;;;19.63;5.38;;;25.30;99.90;;;;;;4955903;29;20043;-47
2022/07/06 00:55:18;;;;;;;15.02;5.78;;;25.30;99.90;;;;;;4955862;29;20034;-47
2022/07/06 00:57:44;;;;;;;10.40;4.65;;;25.30;99.90;;;;;;4956006;29;20035;-47
2022/07/06 01:00:12;;;;;;;13.95;5.13;;;25.40;99.90;;;;;;4956111;28;20055;-48
2022/07/06 01:02:38;;;;;;;19.50;4.90;;;25.40;99.90;;;;;;4955706;29;20110;-48
2022/07/06 01:05:06;;;;;;;17.48;4.85;;;25.40;99.90;;;;;;4955695;29;20438;-47
2022/07/06 01:07:32;;;;;;;17.17;5.25;;;25.40;99.90;;;;;;4955365;29;20043;-47
2022/07/06 01:09:58;;;;;;;18.77;5.55;;;25.40;99.90;;;;;;4955540;29;20503;-47
2022/07/06 01:12:24;;;;;;;17.83;4.97;;;25.40;99.90;;;;;;4955923;29;20106;-47
2022/07/06 01:14:50;;;;;;;9.57;4.13;;;25.40;99.90;;;;;;4955553;29;20031;-47
2022/07/06 01:17:17;;;;;;;19.63;4.50;;;25.40;99.90;;;;;;4955497;29;20792;-47
2022/07/06 01:19:43;;;;;;;17.57;5.70;;;25.40;99.90;;;;;;4955568;29;20034;-47
2022/07/06 01:22:10;;;;;;;18.20;5.20;;;25.40;99.90;;;;;;4955283;29;20266;-47
2022/07/06 01:24:36;;;;;;;21.85;6.22;;;25.40;99.90;;;;;;4955364;29;20030;-47
2022/07/06 01:27:04;;;;;;;20.23;5.13;;;25.40;99.90;;;;;;4955314;29;20518;-47
2022/07/06 01:29:31;;;;;;;15.48;4.80;;;25.40;99.90;;;;;;4955218;29;20496;-47
2022/07/06 01:31:57;;;;;;;14.13;5.07;;;25.50;99.90;;;;;;4955309;29;20481;-47
2022/07/06 01:34:23;;;;;;;16.13;5.38;;;25.40;99.90;;;;;;4955304;29;20050;-47
2022/07/06 01:36:48;;;;;;;17.42;5.22;;;25.50;99.90;;;;;;4955000;29;20468;-47
2022/07/06 01:39:14;;;;;;;16.00;4.60;;;25.40;99.90;;;;;;4954995;29;20028;-47
2022/07/06 01:41:40;;;;;;;21.80;5.47;;;25.50;99.90;;;;;;4955149;29;20031;-47
2022/07/06 01:44:06;;;;;;;19.25;6.35;;;25.40;99.90;;;;;;4955216;29;20418;-47
2022/07/06 01:46:32;;;;;;;22.40;5.93;;;25.40;99.90;;;;;;4954881;29;20031;-47
2022/07/06 01:48:58;;;;;;;22.08;5.85;;;25.40;99.90;;;;;;4954788;29;20026;-47
2022/07/06 01:51:24;;;;;;;14.43;5.47;;;25.40;99.90;;;;;;4953898;28;20098;-47
2022/07/06 01:53:51;;;;;;;19.42;6.18;;;25.30;99.90;;;;;;4954813;29;20023;-47
2022/07/06 01:56:19;;;;;;;13.93;4.78;;;25.30;99.90;;;;;;4954713;29;20027;-46
2022/07/06 01:58:45;;;;;;;;;;;25.30;99.90;;;;;;4955147;29;20031;-47
2022/07/06 02:01:14;;;;;;;15.43;4.60;;;25.30;99.90;;;;;;5016136;23;19945;-45
2022/07/06 02:03:39;;;;;;;17.23;4.97;;;25.30;99.90;;;;;;5012881;28;20022;-46
2022/07/06 02:06:06;;;;;;;16.23;5.18;;;25.20;99.90;;;;;;5012652;28;20068;-46
2022/07/06 02:08:33;;;;;;;19.42;5.95;;;25.20;99.90;;;;;;5012675;28;20028;-48
2022/07/06 02:10:58;;;;;;;22.63;5.30;;;25.20;99.90;;;;;;5012984;28;20022;-45
2022/07/06 02:13:25;;;;;;;27.00;6.22;;;25.20;99.90;;;;;;5012785;28;20512;-45
2022/07/06 02:15:50;;;;;;;15.60;5.18;;;25.20;99.90;;;;;;5012726;28;20495;-46
2022/07/06 02:18:16;;;;;;;16.73;5.18;;;25.20;99.90;;;;;;5012706;28;20064;-46
2022/07/06 02:20:42;;;;;;;20.05;4.97;;;25.20;99.90;;;;;;5012499;28;20025;-45
2022/07/06 02:23:08;;;;;;;18.20;4.88;;;25.20;99.90;;;;;;5012589;28;20423;-46
2022/07/06 02:25:33;;;;;;;17.02;5.13;;;25.20;99.90;;;;;;5012383;28;20033;-46
2022/07/06 02:27:59;;;;;;;19.30;5.32;;;25.10;99.90;;;;;;5012536;28;20395;-46
2022/07/06 02:30:25;;;;;;;18.77;5.13;;;25.10;99.90;;;;;;5012550;28;20071;-46
2022/07/06 02:32:51;;;;;;;21.48;5.78;;;25.10;99.90;;;;;;5012363;28;20045;-45
2022/07/06 02:35:16;;;;;;;12.93;4.72;;;25.10;99.90;;;;;;5012334;28;20531;-45
2022/07/06 02:37:42;;;;;;;19.38;5.60;;;25.10;99.90;;;;;;5012300;28;20038;-45
2022/07/06 02:40:09;;;;;;;16.50;5.03;;;25.10;99.90;;;;;;5012183;28;20030;-45
2022/07/06 02:42:35;;;;;;;19.25;4.65;;;25.00;99.90;;;;;;5012329;28;20029;-45
2022/07/06 02:45:01;;;;;;;19.63;4.88;;;25.00;99.90;;;;;;5012408;28;20022;-45
2022/07/06 02:47:26;;;;;;;24.00;5.80;;;25.00;99.90;;;;;;5012333;28;20038;-45
2022/07/06 02:49:53;;;;;;;17.45;5.78;;;25.00;99.90;;;;;;5012035;28;20046;-45
2022/07/06 02:52:19;;;;;;;13.63;5.00;;;25.00;99.90;;;;;;5012002;28;20487;-45
2022/07/06 02:54:45;;;;;;;24.42;6.10;;;25.00;99.90;;;;;;5011757;28;20026;-44
2022/07/06 02:57:11;;;;;;;22.52;5.50;;;25.00;99.90;;;;;;5011984;28;20101;-45
2022/07/06 02:59:37;;;;;;;19.90;5.47;;;25.00;99.90;;;;;;5012219;28;20516;-45
2022/07/06 03:02:06;;;;;;;21.05;6.97;;;25.00;99.90;;;;;;5011824;28;20045;-45
2022/07/06 03:04:32;;;;;;;15.32;5.35;;;24.90;99.90;;;;;;5011606;28;20376;-45
2022/07/06 03:06:57;;;;;;;18.77;5.53;;;24.90;99.90;;;;;;4994546;28;20514;-45
2022/07/06 03:09:24;;;;;;;17.95;5.70;;;24.90;99.90;;;;;;5011789;28;20022;-44
2022/07/06 03:11:49;;;;;;;17.50;5.43;;;24.80;99.90;;;;;;5011886;28;20022;-44
2022/07/06 03:14:15;;;;;;;21.13;5.70;;;24.80;99.90;;;;;;5011756;28;20032;-45
2022/07/06 03:16:41;;;;;;;19.50;5.45;;;24.80;99.90;;;;;;5011677;28;20022;-45
2022/07/06 03:19:07;;;;;;;21.35;5.90;;;24.90;99.90;;;;;;4993943;28;20029;-44
2022/07/06 03:21:33;;;;;;;17.45;5.78;;;24.80;99.90;;;;;;5011734;28;20057;-45
2022/07/06 03:23:58;;;;;;;15.10;5.47;;;24.80;99.90;;;;;;5011942;28;20022;-45
2022/07/06 03:26:24;;;;;;;15.27;5.97;;;24.80;99.90;;;;;;5011415;28;20381;-44
2022/07/06 03:28:50;;;;;;;17.27;5.53;;;24.90;99.90;;;;;;5011669;28;20447;-45
2022/07/06 03:31:16;;;;;;;16.42;5.70;;;24.80;99.90;;;;;;5011454;28;20018;-45
2022/07/06 03:33:42;;;;;;;18.25;5.15;;;24.80;99.90;;;;;;5011525;28;20026;-45
2022/07/06 03:36:08;;;;;;;17.33;5.40;;;24.80;99.90;;;;;;5011407;28;20026;-45
2022/07/06 03:38:34;;;;;;;23.33;6.18;;;24.80;99.90;;;;;;5011683;28;20022;-45
2022/07/06 03:41:00;;;;;;;17.33;5.13;;;24.80;99.90;;;;;;5011520;28;20468;-44
2022/07/06 03:43:26;;;;;;;18.33;5.10;;;24.80;99.90;;;;;;5011399;28;20044;-45
2022/07/06 03:45:51;;;;;;;13.77;4.85;;;24.80;99.90;;;;;;5011218;28;20026;-45
2022/07/06 03:48:17;;;;;;;20.55;4.63;;;24.80;99.90;;;;;;5011444;28;20547;-45
2022/07/06 03:50:43;;;;;;;14.45;5.45;;;24.80;99.90;;;;;;5011442;28;20049;-45
2022/07/06 03:53:09;;;;;;;28.35;7.63;;;24.80;99.90;;;;;;5011622;28;20033;-45
2022/07/06 03:55:34;;;;;;;16.10;5.30;;;24.70;99.90;;;;;;5011544;28;20471;-45
2022/07/06 03:58:00;;;;;;;17.10;6.35;;;24.70;99.90;;;;;;4993995;28;20423;-45
2022/07/06 04:00:26;;;;;;;17.70;5.20;;;24.70;99.90;;;;;;5011511;28;20046;-44
2022/07/06 04:02:52;;;;;;;12.95;4.93;;;24.70;99.90;;;;;;5011153;28;20026;-45
2022/07/06 04:05:21;;;;;;;17.88;5.88;;;24.70;99.90;;;;;;5011372;28;20026;-44
2022/07/06 04:07:50;;;;;;;16.60;4.95;;;24.70;99.90;;;;;;5011156;28;20046;-46
2022/07/06 04:10:16;;;;;;;19.10;6.03;;;24.70;99.90;;;;;;4993829;28;20022;-47
2022/07/06 04:12:43;;;;;;;15.98;5.78;;;24.60;99.90;;;;;;5011031;28;20034;-46
2022/07/06 04:15:11;;;;;;;16.58;5.00;;;24.60;99.90;;;;;;5012352;28;20411;-46
2022/07/06 04:17:52;;;;;;;16.33;5.20;;;24.60;99.90;;;;;;5015067;28;20088;-46
2022/07/06 04:20:18;;;;;;;15.77;5.63;;;24.60;99.90;;;;;;5014798;28;20432;-45
2022/07/06 04:22:44;;;;;;;19.13;5.93;;;24.50;99.90;;;;;;5014725;28;20053;-46
2022/07/06 04:25:10;;;;;;;16.05;5.30;;;24.50;99.90;;;;;;5014796;28;20068;-45
2022/07/06 04:27:36;;;;;;;15.77;5.90;;;24.50;99.90;;;;;;5014775;28;20076;-42
2022/07/06 04:30:04;;;;;;;9.73;4.28;;;24.60;99.90;;;;;;5014880;28;20025;-45
2022/07/06 04:32:29;;;;;;;13.57;4.70;;;24.70;99.90;;;;;;5014590;28;20017;-45
2022/07/06 04:34:55;;;;;;;12.15;4.82;;;24.90;99.90;;;;;;5014543;28;20072;-45
2022/07/06 04:37:21;;;;;;;10.77;5.00;;;25.00;99.90;;;;;;5014431;28;20403;-45
2022/07/06 04:39:47;;;;;;;11.45;4.07;;;25.10;99.90;;;;;;5014409;28;20391;-45
2022/07/06 04:42:12;;;;;;;9.98;5.22;;;25.20;99.90;;;;;;5014666;28;20529;-46
2022/07/06 04:44:38;;;;;;;11.68;4.35;;;25.30;99.90;;;;;;4997035;28;20034;-45
2022/07/06 04:47:04;;;;;;;13.32;5.05;;;25.30;99.90;;;;;;5014557;28;20041;-46
2022/07/06 04:49:30;;;;;;;13.68;5.10;;;25.40;99.90;;;;;;4996602;28;20032;-45
2022/07/06 04:51:55;;;;;;;9.80;4.28;;;25.50;99.90;;;;;;5014258;28;20072;-45
2022/07/06 04:54:21;;;;;;;11.73;4.60;;;25.50;99.90;;;;;;5014304;28;20690;-45
2022/07/06 04:56:47;;;;;;;8.75;4.22;;;25.50;99.90;;;;;;5014145;28;20461;-45
2022/07/06 04:59:13;;;;;;;11.48;4.80;;;25.60;99.90;;;;;;5014191;28;20044;-44
2022/07/06 05:01:40;;;;;;;10.73;4.57;;;25.60;99.90;;;;;;5014053;28;20408;-46
2022/07/06 05:04:09;;;;;;;13.35;5.05;;;25.60;99.90;;;;;;5014278;28;20022;-46
2022/07/06 05:06:35;;;;;;;12.75;3.80;;;25.60;99.90;;;;;;5014162;28;20402;-45
2022/07/06 05:09:00;;;;;;;9.45;4.47;;;25.60;99.90;;;;;;5014065;28;20105;-45
2022/07/06 05:11:27;;;;;;;11.13;3.95;;;25.60;99.90;;;;;;5014072;28;20044;-45
2022/07/06 05:13:54;;;;;;;14.47;4.13;;;25.60;99.90;;;;;;5014049;28;20054;-45
2022/07/06 05:16:20;;;;;;;10.45;4.32;;;25.60;99.90;;;;;;5013962;28;20272;-45
2022/07/06 05:18:47;;;;;;;10.30;4.23;;;25.70;99.90;;;;;;5013743;28;20468;-47
2022/07/06 05:21:12;;;;;;;13.00;4.13;;;25.70;99.90;;;;;;5013699;28;20030;-45
2022/07/06 05:23:38;;;;;;;12.13;4.80;;;25.70;99.90;;;;;;5013959;28;20025;-45
2022/07/06 05:26:04;;;;;;;8.90;3.92;;;25.70;99.90;;;;;;5013493;28;20109;-45
2022/07/06 05:28:30;;;;;;;9.45;4.18;;;25.70;99.90;;;;;;5013584;28;20034;-45
2022/07/06 05:30:56;;;;;;;12.57;4.72;;;25.70;99.90;;;;;;5013619;28;20101;-45
2022/07/06 05:33:21;;;;;;;16.00;6.15;;;25.70;99.90;;;;;;5013723;28;20026;-45
2022/07/06 05:35:47;;;;;;;11.57;4.50;;;25.70;99.90;;;;;;5013509;28;20030;-45
2022/07/06 05:38:13;;;;;;;11.15;4.72;;;25.70;99.90;;;;;;4995906;28;20018;-45
2022/07/06 05:40:39;;;;;;;18.80;5.78;;;25.70;99.90;;;;;;5013626;28;20022;-45
2022/07/06 05:43:04;;;;;;;11.05;4.88;;;25.80;99.90;;;;;;5013453;28;20442;-45
2022/07/06 05:45:30;;;;;;;13.18;5.53;;;25.80;99.90;;;;;;5013243;28;20395;-45
2022/07/06 05:50:40;;;;;;;13.15;5.28;;;25.80;99.90;;;;;;5013241;28;20092;-45
2022/07/06 05:53:06;;;;;;;12.70;4.80;;;25.80;99.90;;;;;;5013620;28;20431;-45
2022/07/06 05:55:33;;;;;;;17.50;5.07;;;25.80;99.90;;;;;;5013068;28;20058;-45
2022/07/06 05:57:58;;;;;;;14.75;5.75;;;25.80;99.90;;;;;;5012894;28;20018;-45
2022/07/06 06:00:26;;;;;;;16.90;5.22;;;25.80;99.90;;;;;;5012710;28;20545;-45
2022/07/06 06:02:53;;;;;;;15.68;6.85;;;25.80;99.90;;;;;;5013034;28;20526;-45
2022/07/06 06:05:19;;;;;;;13.40;5.65;;;25.80;99.90;;;;;;5012898;28;20037;-44
2022/07/06 06:07:50;;;;;;;24.00;6.85;;;25.80;99.90;;;;;;5013082;28;20065;-44
2022/07/06 06:10:17;;;;;;;10.35;4.82;;;25.80;99.90;;;;;;5012900;28;20022;-44
2022/07/06 06:12:44;;;;;;;13.88;4.90;;;25.80;99.90;;;;;;5012715;28;20526;-45
2022/07/06 06:15:12;;;;;;;13.20;5.13;;;25.80;99.90;;;;;;5012764;28;20026;-44
2022/07/06 06:17:38;;;;;;;14.77;5.68;;;25.90;99.90;;;;;;5013022;28;20041;-44
2022/07/06 06:20:11;;;;;;;15.40;5.20;;;25.90;99.90;;;;;;5012571;28;20045;-45
2022/07/06 06:22:52;;;;;;;12.35;5.15;;;25.90;99.90;;;;;;5012573;28;20373;-44
2022/07/06 06:25:28;;;;;;;12.65;5.80;;;25.90;99.90;;;;;;4994906;28;20410;-44
2022/07/06 06:27:54;;;;;;;13.88;5.68;;;25.90;99.90;;;;;;5012319;28;20041;-45
2022/07/06 06:30:20;;;;;;;12.88;6.03;;;25.90;99.90;;;;;;5012381;28;20026;-44
2022/07/06 06:32:46;;;;;;;11.60;6.07;;;26.00;99.90;;;;;;5012428;28;20025;-44
2022/07/06 06:35:12;;;;;;;16.92;6.00;;;26.00;99.90;;;;;;5012515;28;20026;-44
2022/07/06 06:37:38;;;;;;;14.00;5.63;;;26.00;99.90;;;;;;5011843;28;20026;-44
2022/07/06 06:40:05;;;;;;;16.77;6.05;;;26.00;99.90;;;;;;5012237;28;20034;-45
2022/07/06 06:42:32;;;;;;;15.93;6.20;;;26.00;99.90;;;;;;4994701;28;20032;-45
2022/07/06 06:44:58;;;;;;;13.93;6.28;;;26.00;99.90;;;;;;5012116;28;20069;-47
2022/07/06 06:47:23;;;;;;;19.15;7.55;;;26.00;99.90;;;;;;5011928;28;20057;-45
2022/07/06 06:49:49;;;;;;;19.63;7.57;;;25.90;99.90;;;;;;5011961;28;20048;-45
2022/07/06 06:52:15;;;;;;;17.42;6.97;;;25.90;99.90;;;;;;5011927;28;20073;-45
2022/07/06 06:54:41;;;;;;;15.13;6.43;;;25.90;99.90;;;;;;5012007;28;20034;-45
2022/07/06 06:57:06;;;;;;;13.63;5.20;;;25.90;99.90;;;;;;5011869;28;20028;-45
2022/07/06 06:59:32;;;;;;;11.63;5.13;;;25.90;99.90;;;;;;5011671;28;20074;-45
2022/07/06 07:01:58;;;;;;;10.98;5.60;;;26.00;99.90;;;;;;5011803;28;20129;-44
2022/07/06 07:04:24;;;;;;;16.38;6.53;;;26.00;99.90;;;;;;5011772;28;20022;-45
2022/07/06 07:06:49;;;;;;;9.60;5.57;;;26.00;99.90;;;;;;5011753;28;20114;-44
2022/07/06 07:09:15;;;;;;;14.75;6.50;;;26.10;99.90;;;;;;5011788;28;20024;-44
2022/07/06 07:11:41;;;;;;;14.25;5.57;;;26.10;99.90;;;;;;5011913;28;20037;-45
2022/07/06 07:14:07;;;;;;;17.70;5.45;;;26.10;99.90;;;;;;5011662;28;20083;-46
2022/07/06 07:16:33;;;;;;;15.40;5.93;;;26.10;99.90;;;;;;4994007;28;20045;-44
2022/07/06 07:18:58;;;;;;;14.57;6.13;;;26.10;99.90;;;;;;5011684;28;20360;-46
2022/07/06 07:21:24;;;;;;;18.00;5.70;;;26.10;99.90;;;;;;5011680;28;20026;-45
2022/07/06 07:23:50;;;;;;;13.35;5.50;;;26.10;99.90;;;;;;5011651;28;20026;-44
2022/07/06 07:26:16;;;;;;;16.50;5.65;;;26.10;99.90;;;;;;5011202;28;20038;-44
2022/07/06 07:28:42;;;;;;;18.58;7.43;;;26.10;99.90;;;;;;5011399;28;20033;-44
2022/07/06 07:31:08;;;;;;;19.67;6.03;;;26.10;99.90;;;;;;5011501;28;20034;-45
2022/07/06 07:33:34;;;;;;;10.52;4.60;;;26.10;99.90;;;;;;5011268;28;20435;-45
2022/07/06 07:36:00;;;;;;;16.75;5.22;;;26.20;99.90;;;;;;5011440;28;20037;-45
2022/07/06 07:38:26;;;;;;;15.50;5.88;;;26.20;99.90;;;;;;5011310;28;20036;-44
2022/07/06 07:40:54;;;;;;;11.43;5.53;;;26.20;99.90;;;;;;5011323;28;20030;-44
2022/07/06 07:43:20;;;;;;;8.95;4.85;;;26.20;99.90;;;;;;5011144;28;20034;-44
2022/07/06 07:45:48;;;;;;;13.57;6.18;;;26.30;99.90;;;;;;5011367;28;20044;-46
2022/07/06 07:48:15;;;;;;;16.45;5.32;;;26.30;99.90;;;;;;5011519;28;20109;-46
2022/07/06 07:50:41;;;;;;;13.07;5.30;;;26.30;99.90;;;;;;5013298;28;20101;-45
2022/07/06 07:53:07;;;;;;;19.52;6.38;;;26.30;99.90;;;;;;5015303;28;20376;-45
2022/07/06 07:55:33;;;;;;;13.52;5.07;;;26.30;99.90;;;;;;5015111;28;20078;-45
2022/07/06 07:57:59;;;;;;;8.35;4.93;;;26.30;99.90;;;;;;5015118;28;20022;-45
2022/07/06 08:00:26;;;;;;;13.80;5.47;;;26.30;99.90;;;;;;5014903;28;20128;-45
2022/07/06 08:02:54;;;;;;;13.27;4.33;;;26.30;99.90;;;;;;5015188;28;20064;-45
2022/07/06 08:05:19;;;;;;;;;;;26.40;99.90;;;;;;5015639;28;20744;-45
2022/07/06 08:07:45;;;;;;;17.48;5.55;;;26.30;99.90;;;;;;5015246;28;19913;-45
2022/07/06 08:10:11;;;;;;;14.20;5.50;;;26.40;99.90;;;;;;5013736;28;20056;-45
2022/07/06 08:12:37;;;;;;;16.98;5.78;;;26.30;99.90;;;;;;5014873;28;20395;-45
2022/07/06 08:15:04;;;;;;;16.02;5.95;;;26.40;99.90;;;;;;5014844;28;20026;-45
2022/07/06 08:17:30;;;;;;;14.70;5.80;;;26.30;99.90;;;;;;5014954;28;20021;-45
2022/07/06 08:19:56;;;;;;;15.52;4.78;;;26.40;99.90;;;;;;5014839;28;20369;-45
2022/07/06 08:22:22;;;;;;;15.85;5.50;;;26.40;99.90;;;;;;5014867;28;20018;-46
2022/07/06 08:24:48;;;;;;;14.45;5.60;;;26.40;99.90;;;;;;5014994;28;20396;-45
2022/07/06 08:27:14;;;;;;;19.83;5.65;;;26.40;99.90;;;;;;5014782;28;20121;-45
2022/07/06 08:29:40;;;;;;;20.67;5.60;;;26.40;99.90;;;;;;5014661;28;20450;-46
2022/07/06 08:32:06;;;;;;;19.75;5.50;;;26.50;99.90;;;;;;5014640;28;20400;-45
2022/07/06 08:34:32;;;;;;;19.42;5.43;;;26.50;99.90;;;;;;5014509;28;20096;-45
2022/07/06 08:36:58;;;;;;;14.25;4.57;;;26.60;99.90;;;;;;5014408;28;20025;-45
2022/07/06 08:39:24;;;;;;;14.30;4.90;;;26.60;99.90;;;;;;5014285;28;20026;-46
2022/07/06 08:41:51;;;;;;;8.57;4.82;;;26.60;99.90;;;;;;5014312;28;20109;-44
2022/07/06 08:44:17;;;;;;;13.82;5.13;;;26.60;99.90;;;;;;5014565;28;20022;-45
2022/07/06 08:46:44;;;;;;;21.10;5.53;;;26.60;99.90;;;;;;5014232;28;20109;-45
2022/07/06 08:49:16;;;;;;;13.05;5.18;;;26.60;99.90;;;;;;5014207;28;20267;-44
2022/07/06 08:51:42;;;;;;;15.65;5.20;;;26.70;99.90;;;;;;5014192;28;20539;-45
2022/07/06 08:54:08;;;;;;;16.42;4.82;;;26.70;99.90;;;;;;5014335;28;20470;-46
2022/07/06 08:56:34;;;;;;;19.08;4.95;;;26.70;99.90;;;;;;4996553;28;20030;-45
2022/07/06 08:59:00;;;;;;;16.58;5.00;;;26.80;99.90;;;;;;5014048;28;20021;-45
2022/07/06 09:01:26;;;;;;;18.15;5.65;;;26.80;99.90;;;;;;5013434;28;20045;-46
2022/07/06 09:03:53;;;;;;;19.90;4.65;;;26.80;99.90;;;;;;5013998;28;20101;-46
2022/07/06 09:06:28;;;;;;;17.88;5.47;;;26.80;99.90;;;;;;5014219;28;20036;-45
2022/07/06 09:08:56;;;;;;;20.02;5.68;;;26.80;99.90;;;;;;5014022;28;20041;-45
2022/07/06 09:11:23;;;;;;;16.17;5.88;;;26.80;99.90;;;;;;5013914;28;20026;-44
2022/07/06 09:13:50;;;;;;;13.93;6.00;;;26.80;99.90;;;;;;5013976;28;20040;-45
2022/07/06 09:16:17;;;;;;;12.10;4.65;;;26.90;99.90;;;;;;5014078;28;20034;-45
2022/07/06 09:18:46;;;;;;;15.30;4.80;;;26.90;99.90;;;;;;5013720;28;20503;-46
2022/07/06 09:21:24;;;;;;;19.13;5.65;;;26.90;99.90;;;;;;5013820;28;20480;-46
2022/07/06 09:23:57;;;;;;;17.00;5.25;;;26.90;99.90;;;;;;5013970;28;20022;-49
2022/07/06 09:26:23;;;;;;;12.55;5.07;;;26.90;99.90;;;;;;5013539;28;20033;-48
2022/07/06 09:28:49;;;;;;;12.60;4.95;;;26.90;99.90;;;;;;5013920;28;20030;-46
2022/07/06 09:31:15;;;;;;;16.02;5.40;;;27.00;99.90;;;;;;5013449;28;20439;-47
2022/07/06 09:33:57;;;;;;;14.77;4.90;;;27.00;99.90;;;;;;5013493;28;20129;-46
2022/07/06 09:36:42;;;;;;;14.32;4.70;;;27.10;99.90;;;;;;5013560;28;20041;-46
2022/07/06 09:39:24;;;;;;;11.52;4.22;;;27.10;99.90;;;;;;5013336;28;20036;-46
2022/07/06 09:41:55;;;;;;;13.05;5.72;;;27.10;99.90;;;;;;5013590;28;20022;-45
2022/07/06 09:44:36;;;;;;;15.43;5.47;;;27.20;99.90;;;;;;5013752;28;20515;-46
2022/07/06 09:47:08;;;;;;;13.65;4.82;;;27.20;99.90;;;;;;5013175;28;20092;-46
2022/07/06 09:49:35;;;;;;;12.65;5.00;;;27.20;99.90;;;;;;5013102;28;20030;-46
2022/07/06 09:52:06;;;;;;;18.92;5.72;;;27.10;99.90;;;;;;4995642;28;20450;-46
2022/07/06 09:54:38;;;;;;;14.32;5.38;;;27.10;99.90;;;;;;5013000;28;20026;-46
2022/07/06 09:57:05;;;;;;;19.83;5.65;;;27.20;99.90;;;;;;5013003;28;20025;-46
2022/07/06 09:59:32;;;;;;;14.82;5.82;;;27.20;99.90;;;;;;5012733;28;20026;-45
2022/07/06 10:02:04;;;;;;;15.52;5.40;;;27.10;99.90;;;;;;5012857;28;20041;-46
2022/07/06 10:04:30;;;;;;;16.25;5.47;;;27.10;99.90;;;;;;4995295;28;20076;-46
2022/07/06 10:06:57;;;;;;;14.02;5.40;;;27.10;99.90;;;;;;5012644;28;20073;-47
2022/07/06 10:09:25;;;;;;;16.70;6.38;;;27.20;99.90;;;;;;4995442;28;20026;-46
2022/07/06 10:12:02;;;;;;;16.92;5.18;;;27.20;99.90;;;;;;5012504;28;20136;-47
2022/07/06 10:14:31;;;;;;;19.40;5.75;;;27.30;99.90;;;;;;5012223;28;20018;-45
2022/07/06 10:16:59;;;;;;;18.63;5.40;;;27.40;99.90;;;;;;5012627;28;20096;-45
2022/07/06 10:19:26;;;;;;;21.95;6.57;;;27.40;99.90;;;;;;5012546;28;20022;-45
2022/07/06 10:21:52;;;;;;;19.38;5.75;;;27.50;99.90;;;;;;5012769;28;20037;-45
2022/07/06 10:24:19;;;;;;;15.82;5.43;;;27.50;99.90;;;;;;5012574;28;20026;-45
2022/07/06 10:26:45;;;;;;;;;;;27.50;99.90;;;;;;5012672;28;20120;-45
2022/07/06 10:29:11;;;;;;;17.45;6.20;;;27.50;99.90;;;;;;5012460;28;20003;-45
2022/07/06 10:31:48;;;;;;;18.70;6.70;;;27.50;99.90;;;;;;5012370;28;20025;-45
2022/07/06 10:34:17;;;;;;;16.10;5.65;;;27.60;99.90;;;;;;5012287;28;20022;-45
2022/07/06 10:36:48;;;;;;;20.42;6.28;;;27.60;99.90;;;;;;5012124;28;20073;-45
2022/07/06 10:41:58;;;;;;;17.98;6.43;;;27.60;99.90;;;;;;5011690;28;20037;-44
2022/07/06 10:44:25;;;;;;;16.17;6.13;;;27.60;99.90;;;;;;5001633;28;20377;-45
2022/07/06 10:47:00;;;;;;;;;;;27.50;99.90;;;;;;5006924;28;20033;-47
2022/07/06 10:49:27;;;;;;;20.52;6.22;;;27.50;99.90;;;;;;5010310;28;19992;-45
2022/07/06 10:51:53;;;;;;;16.58;7.40;;;27.50;99.90;;;;;;5010696;28;20080;-46
2022/07/06 10:54:20;;;;;;;18.58;6.80;;;27.50;99.90;;;;;;5006884;28;20030;-45
2022/07/06 10:56:48;;;;;;;14.98;7.10;;;27.50;99.90;;;;;;5011562;28;20052;-46
2022/07/06 10:59:22;;;;;;;19.67;7.50;;;27.40;99.90;;;;;;5011627;28;20056;-47
2022/07/06 11:02:16;;;;;;;16.20;7.35;;;27.40;99.90;;;;;;5011391;28;20042;-45
2022/07/06 11:04:46;;;;;;;19.08;7.68;;;27.30;99.90;;;;;;5008662;28;20032;-46
2022/07/06 11:07:15;;;;;;;14.30;6.53;;;27.20;99.90;;;;;;5006234;28;20131;-45
2022/07/06 11:09:53;;;;;;;18.38;6.28;;;27.10;99.90;;;;;;5009305;28;20014;-45
2022/07/06 11:12:20;;;;;;;23.05;8.10;;;27.00;99.90;;;;;;5009016;28;20060;-47
2022/07/06 11:14:47;;;;;;;23.90;6.43;;;26.70;99.90;;;;;;5011239;28;20065;-45
2022/07/06 11:17:13;;;;;;;14.85;6.53;;;26.70;99.90;;;;;;5011680;28;20286;-45
2022/07/06 11:19:49;;;;;;;17.27;6.10;;;26.60;99.90;;;;;;5008783;28;20026;-45
2022/07/06 11:22:16;;;;;;;16.83;6.32;;;26.60;99.90;;;;;;5009819;28;20030;-45
2022/07/06 11:24:42;;;;;;;20.42;5.57;;;26.60;99.90;;;;;;5009961;28;20029;-46
2022/07/06 11:27:09;;;;;;;20.50;5.80;;;26.70;99.90;;;;;;5000045;28;20068;-45
2022/07/06 11:29:38;;;;;;;20.95;6.70;;;26.80;99.90;;;;;;5006001;28;20104;-46
2022/07/06 11:32:09;;;;;;;20.13;6.47;;;26.80;99.90;;;;;;4991566;28;20037;-46
2022/07/06 11:34:36;;;;;;;15.35;6.13;;;26.80;99.90;;;;;;4991148;28;20023;-46
2022/07/06 11:37:07;;;;;;;22.67;5.97;;;26.90;99.90;;;;;;5005231;28;20022;-46
2022/07/06 11:39:36;;;;;;;17.42;6.13;;;26.80;99.90;;;;;;4991619;28;20029;-47
2022/07/06 11:42:03;;;;;;;13.60;5.28;;;26.80;99.90;;;;;;4990994;28;20026;-46
2022/07/06 11:44:30;;;;;;;14.40;5.65;;;26.90;99.90;;;;;;4991461;28;20030;-47
2022/07/06 11:46:57;;;;;;;20.45;5.90;;;26.90;99.90;;;;;;4991535;28;20042;-46
2022/07/06 11:49:23;;;;;;;15.00;5.63;;;27.00;99.90;;;;;;5009594;28;20022;-47
2022/07/06 11:51:49;;;;;;;19.58;5.82;;;27.00;99.90;;;;;;4998858;28;20578;-47
2022/07/06 11:54:19;;;;;;;18.85;6.05;;;27.00;99.90;;;;;;5004716;28;20096;-45
2022/07/06 11:56:47;;;;;;;10.90;5.43;;;27.00;99.90;;;;;;5008227;28;20064;-46
2022/07/06 11:59:15;;;;;;;23.05;7.10;;;27.00;99.90;;;;;;5009676;28;20156;-46
2022/07/06 12:01:43;;;;;;;13.88;5.53;;;27.00;99.90;;;;;;5004524;28;20038;-45
2022/07/06 12:04:10;;;;;;;19.48;6.18;;;27.10;99.90;;;;;;5002796;28;20083;-46
2022/07/06 12:06:36;;;;;;;18.98;8.38;;;27.10;99.90;;;;;;5009687;28;20022;-45
2022/07/06 12:09:04;;;;;;;15.95;6.30;;;27.10;99.90;;;;;;5009750;28;20028;-46
2022/07/06 12:11:32;;;;;;;20.88;5.97;;;27.10;99.90;;;;;;5008401;28;20109;-45
2022/07/06 12:14:00;;;;;;;18.45;6.85;;;27.10;99.90;;;;;;5003263;28;20018;-45
2022/07/06 12:16:35;;;;;;;18.80;5.75;;;27.20;99.90;;;;;;5009869;28;20033;-45
2022/07/06 12:19:03;;;;;;;16.45;5.88;;;27.20;99.90;;;;;;5009351;28;20414;-46
2022/07/06 12:21:29;;;;;;;14.63;5.10;;;27.20;99.90;;;;;;5007939;28;20463;-45
2022/07/06 12:23:55;;;;;;;14.55;6.80;;;27.30;99.90;;;;;;4998293;28;20365;-44
2022/07/06 12:26:28;;;;;;;17.73;6.40;;;27.20;99.90;;;;;;5001742;28;20037;-45
2022/07/06 12:29:02;;;;;;;16.13;6.15;;;27.30;99.90;;;;;;5009464;28;20030;-45
2022/07/06 12:31:36;;;;;;;15.05;5.32;;;27.30;99.90;;;;;;5005867;28;20019;-46
2022/07/06 12:34:03;;;;;;;12.07;5.28;;;27.30;99.90;;;;;;5008247;28;20108;-44
2022/07/06 12:36:29;;;;;;;15.30;5.13;;;27.30;99.90;;;;;;5011504;28;20025;-45
2022/07/06 12:38:55;;;;;;;16.58;6.55;;;27.30;99.90;;;;;;5009688;28;20476;-45
2022/07/06 12:41:30;;;;;;;17.92;6.38;;;27.30;99.90;;;;;;4984629;28;20018;-46
2022/07/06 12:44:05;;;;;;;26.33;6.80;;;27.30;99.90;;;;;;5012416;28;20029;-47